• Join FlightAware (Why Join?)
  • Login
  • US Flag 
08:36AM EDT


 

Airport Tracker/Info


-or-


 

Live Flight TrackerFlight Track Log ✈ N403DM ✈ 30-Sep-2013 ✈ KBTL - KPLD

Flight Track Log - Related Links

Times and Time Zones

All times are in EDT time to prevent confusion due to time zone crossing. See the N403DM flight status page for this flight to view local times or setup timezone preferences in your user account.

Time Position Orientation Groundspeed Altitude Reporting Facility
EDT Latitude Longitude Course Direction KTS MPH feet Rate Location/Type
09:48PM 42.2050 -85.2647 167° South 142 163 4,500  Level Chicago Center
09:49PM 42.1558 -85.2556 172° South 148 170 5,500 780 Climbing Chicago Center
09:50PM 42.1147 -85.2486 173° South 148 170 6,200 720 Climbing Chicago Center
09:51PM 42.0459 -85.2125 175° South  Level Estimated
09:51PM 42.0722 -85.2403 172° South 153 176 7,000  Level Chicago Center
09:52PM 42.0025 -85.2059 174° South  Level FlightAware Approximate
09:52PM 42.0239 -85.2317 172° South 174 200 6,900  Level Chicago Center
09:53PM 41.9739 -85.2219 172° South 180 207 7,000  Climbing Chicago Center
09:54PM 41.9242 -85.2144 174° South 180 207 6,900  Descending Chicago Center
09:55PM 41.8744 -85.2056 172° South 179 206 7,000  Climbing Chicago Center
09:56PM 41.8247 -85.1972 173° South 181 208 7,000 -60 Level Chicago Center
09:57PM 41.7753 -85.1894 173° South 179 206 6,900 -60 Descending Chicago Center
09:58PM 41.7256 -85.1803 172° South 178 205 6,900  Level Chicago Center
09:59PM 41.6647 -85.1700 173° South 181 208 7,000  Climbing Chicago Center
10:00PM 41.6142 -85.1639 175° South 182 209 6,900  Descending Chicago Center
10:01PM 41.5636 -85.1558 173° South 181 208 7,000 60 Climbing Chicago Center
10:02PM 41.5131 -85.1478 173° South 181 208 7,100  Climbing Chicago Center
10:03PM 41.4628 -85.1397 173° South 182 209 7,100  Level Chicago Center
10:04PM 41.4125 -85.1311 173° South 181 208 7,100  Level Chicago Center
10:05PM 41.3631 -85.1239 174° South 180 207 7,100 -60 Level Chicago Center
10:06PM 41.3133 -85.1147 172° South 180 207 7,000  Descending Chicago Center
10:07PM 41.2625 -85.1069 173° South 181 208 7,100  Climbing Chicago Center
10:08PM 41.2131 -85.0975 172° South 180 207 7,100 -60 Level Chicago Center
10:09PM 41.1628 -85.0889 173° South 181 208 7,000  Descending Chicago Center
10:10PM 41.1033 -85.0767 171° South 181 208 7,100 -180 Climbing Chicago Center
10:11PM 41.0517 -85.0697 174° South 183 211 6,700 -420 Descending Chicago Center
10:12PM 40.9981 -85.0592 172° South 191 220 6,300 -480 Descending Chicago Center
10:13PM 40.9422 -85.0483 172° South 199 229 5,800 -480 Descending Chicago Center
10:14PM 40.8881 -85.0436 176° South 197 227 5,400 -420 Descending Chicago Center
10:15PM 40.8350 -85.0353 173° South 194 223 5,000 -480 Descending Chicago Center
10:16PM 40.7853 -85.0278 173° South 185 213 4,500 -540 Descending Chicago Center
10:17PM 40.7361 -85.0189 172° South 181 208 4,000 -480 Descending Chicago Center
10:18PM 40.6867 -85.0103 172° South 180 207 3,600 -480 Descending Chicago Center
10:19PM 40.6378 -85.0033 174° South 178 205 3,100 -540 Descending Chicago Center